Spanish Camp, Texas
Current Conditions -  °F | °C
As of 6:55 AM on Sunday 21 Dec 2014 (Local Time) from KARM Reporting Station
Overcast Overcast  
Wind Chill: 51°   Ceiling: 1400
Heat Index: 51°   Visibility: 7mi
Dew Point: 48°   Wind: 3mph
Humidity: 90%   Direction: 50°NE
Pressure: 30.12"   Gusts: NA
Location:  29.2926°N, 96.034°W
Report Text: KARM 211255Z AUTO 05003KT 7SM BKN014 OVC019 11/09 A3012 RMK AO2 T01050090
Loading
Personal Weather Stations






























Interactive Weather Map New forecast layout! Learn more

10-Day Weather Forecast

Advertisements
Track Severe Weather on mobile